Budapest, Hungary

10:27 AM CEST on May 04, 2015 (GMT +0200)
IBUDAPES25 | | Change Station
CLOSE
Current Station
Personal Weather Station
Location: Budapest, VIII. Jozsefvaros, Budapest
Elevation: 374 ft
Nearby Weather Stations

Elev 374 ft 47.49 °N, 19.07 °E | Updated 27 seconds ago

Scattered Clouds
Scattered Clouds
65.1 °F
Feels Like 65.1 °F
N
0.0
Wind Variable Wind from NNE
Gusts 0.0 mph

Today
High -- | Low -- °F
--% Chance of Precip.
Yesterday
High -- | Low -- °F
Precip. -- in
5:22 AM 7:58 PM
Full, 100% visible
Pressure 29.92 in
Visibility 6.2 miles
Clouds Scattered Clouds 1500 ft
Scattered Clouds 11000 ft
Dew Point 56 °F
Humidity 73%
Rainfall 0.01 in
Snow Depth Not available.
UV 5.0 out of 12
Pollen Not available.
Air Quality Not available.
Flu Activity Not available.
METAR LHBP 040800Z VRB03KT 9999 SCT015 SCT110 17/13 Q1013 NOSIG

More Conditions Fewer Conditions

Pressure 29.92 in
Visibility 6.2 miles
Clouds Scattered Clouds 1500 ft
Scattered Clouds 11000 ft
Dew Point 56 °F
Humidity 73%
Rainfall 0.01 in
Snow Depth Not available.
UV 5.0 out of 12
Pollen Not available.
Air Quality Not available.
Flu Activity Not available.
METAR LHBP 040800Z VRB03KT 9999 SCT015 SCT110 17/13 Q1013 NOSIG

More Conditions Fewer Conditions

10-Day Weather Forecast

Almanac

Astronomy

May. 04, 2015 Rise Set
Actual Time
Civil Twilight
Nautical Twilight
Astronomical Twilight
Moon
Length of Visible Light
Length of Day
Tomorrow will be .
, % of the Moon is Illuminated

Today's Extremes

Country Highs Country Lows

Community

WunderPhotos

Upload Photos

1,818,538 photos uploaded!

WunderBlogs® & News

Nearby

Air Quality

  Air Quality AQ Index Pollutant
Not available.

Snow Depth

Station Depth Elevation

Earthquake Activity

City Distance Mag. Time & Date
Minimum magnitude displayed is 2.5.

Coastal Water Temperatures

Place Temperature

Stations

Nearby Weather Stations

Station Location Temp. Windchill Dew Point Humidity Wind Precip. Elev Updated Type